Time;durP1;ratioP1;P1;durP2;ratioP2;P2;SDS_P1;SDS_P2;PMS_P1;PMS_P2;Temp;Humidity;BMP_temperature;BMP_pressure;BME280_temperature;BME280_humidity;BME280_pressure;Samples;Min_cycle;Max_cycle;Signal;HPM_P1;HPM_P2
2023/09/05 00:00:48;;;;;;;5.68;3.78;;;;;;;16.81;74.12;102454.19;7393476;19;20029;-63
2023/09/05 00:03:18;;;;;;;7.10;3.95;;;;;;;16.88;73.92;102446.59;7393991;19;20050;-63
2023/09/05 00:05:48;;;;;;;7.90;3.83;;;;;;;16.94;73.83;102455.97;7395677;19;20006;-63
2023/09/05 00:08:15;;;;;;;6.68;4.63;;;;;;;16.61;74.88;102448.56;7394898;19;20492;-63
2023/09/05 00:10:44;;;;;;;6.53;4.10;;;;;;;16.60;75.23;102454.84;7392839;19;20022;-63
2023/09/05 00:13:11;;;;;;;6.32;4.30;;;;;;;16.66;74.92;102455.28;7392560;19;20014;-62
2023/09/05 00:15:39;;;;;;;6.93;4.25;;;;;;;16.74;74.09;102446.72;7395278;19;20021;-64
2023/09/05 00:18:06;;;;;;;7.95;4.10;;;;;;;16.78;74.14;102446.38;7393196;19;20014;-63
2023/09/05 00:20:34;;;;;;;7.32;4.00;;;;;;;16.84;73.68;102439.75;7395021;19;20428;-64
2023/09/05 00:23:01;;;;;;;8.07;3.90;;;;;;;16.86;73.48;102436.94;7391137;19;20100;-63
2023/09/05 00:25:29;;;;;;;8.82;4.50;;;;;;;16.67;73.91;102438.25;7393825;19;20090;-63
2023/09/05 00:27:56;;;;;;;6.75;4.00;;;;;;;16.53;74.86;102441.09;7393240;19;20011;-63
2023/09/05 00:30:24;;;;;;;5.85;4.13;;;;;;;16.55;74.13;102439.16;7393615;19;20082;-63
2023/09/05 00:32:51;;;;;;;7.68;4.47;;;;;;;16.57;74.05;102437.22;7391290;19;20103;-63
2023/09/05 00:35:18;;;;;;;6.38;4.18;;;;;;;16.57;74.04;102434.56;7391880;19;20020;-63
2023/09/05 00:37:47;;;;;;;8.13;4.40;;;;;;;16.61;74.13;102424.50;7391316;19;20023;-63
2023/09/05 00:40:15;;;;;;;8.30;4.57;;;;;;;16.61;73.67;102425.34;7393196;19;20014;-63
2023/09/05 00:42:42;;;;;;;8.15;4.57;;;;;;;16.61;73.80;102425.34;7392523;19;20021;-63
2023/09/05 00:45:11;;;;;;;8.32;4.20;;;;;;;16.60;74.15;102415.63;7394659;19;20022;-63
2023/09/05 00:47:39;;;;;;;8.65;4.55;;;;;;;16.58;73.91;102425.56;7397639;19;20019;-63
2023/09/05 00:50:07;;;;;;;6.13;4.25;;;;;;;16.63;73.85;102419.88;7392695;19;20018;-63
2023/09/05 00:52:36;;;;;;;8.10;4.60;;;;;;;16.43;74.56;102414.13;7392758;19;20018;-63
2023/09/05 00:55:04;;;;;;;7.47;4.68;;;;;;;16.17;75.80;102421.34;7392900;19;20022;-63
2023/09/05 00:57:32;;;;;;;7.47;4.55;;;;;;;16.08;76.32;102414.84;7390420;19;20028;-63
2023/09/05 01:00:00;;;;;;;8.55;4.90;;;;;;;16.01;76.62;102416.22;7387239;19;20089;-63
2023/09/05 01:02:28;;;;;;;8.40;4.75;;;;;;;15.87;77.19;102415.47;7392545;19;20447;-63
2023/09/05 01:04:55;;;;;;;8.95;5.20;;;;;;;15.80;77.21;102410.56;7389340;19;20085;-63
2023/09/05 01:07:42;;;;;;;8.32;5.45;;;;;;;15.90;76.81;102410.78;7394183;19;20025;-63
2023/09/05 01:10:27;;;;;;;7.15;4.65;;;;;;;15.90;77.37;102413.44;7389360;19;20039;-62
2023/09/05 01:12:58;;;;;;;8.05;5.03;;;;;;;16.16;75.87;102408.09;7390814;19;20035;-63
2023/09/05 01:15:25;;;;;;;6.82;4.38;;;;;;;16.23;74.98;102410.22;7391698;19;20210;-63
2023/09/05 01:17:54;;;;;;;9.23;4.75;;;;;;;16.36;74.34;102401.31;7389967;19;20019;-63
2023/09/05 01:20:34;;;;;;;8.40;5.07;;;;;;;16.38;74.42;102404.75;7391434;19;20015;-63
2023/09/05 01:23:16;;;;;;;8.10;4.75;;;;;;;16.16;75.35;102403.59;7390526;19;20480;-63
2023/09/05 01:25:45;;;;;;;7.45;4.47;;;;;;;16.18;75.38;102407.03;7391548;19;20022;-64
2023/09/05 01:28:13;;;;;;;8.48;4.63;;;;;;;16.26;74.91;102403.81;7391641;19;20489;-64
2023/09/05 01:30:42;;;;;;;7.13;4.80;;;;;;;16.29;74.73;102403.56;7391671;19;20011;-63
2023/09/05 01:33:13;;;;;;;9.20;4.60;;;;;;;16.30;74.86;102402.63;7389825;19;20379;-63
2023/09/05 01:35:40;;;;;;;7.53;4.88;;;;;;;15.96;75.98;102394.31;7391694;19;20021;-63
2023/09/05 01:38:08;;;;;;;7.53;4.65;;;;;;;15.83;77.12;102402.34;7391425;19;20022;-63
2023/09/05 01:40:36;;;;;;;7.05;4.53;;;;;;;16.08;75.95;102395.28;7391096;19;20086;-63
2023/09/05 01:43:03;;;;;;;7.43;4.32;;;;;;;16.13;75.69;102394.94;7389765;19;20131;-63
2023/09/05 01:45:31;;;;;;;7.53;4.68;;;;;;;16.13;75.67;102392.28;7391473;19;20047;-63
2023/09/05 01:47:58;;;;;;;8.15;4.20;;;;;;;16.20;75.53;102393.53;7389291;19;20015;-63
2023/09/05 01:50:31;;;;;;;7.45;4.22;;;;;;;16.26;75.11;102393.97;7390248;19;20023;-63
2023/09/05 01:52:59;;;;;;;;;;;;;;;16.08;75.78;102396.13;7389134;19;20014;-63
2023/09/05 01:55:26;;;;;;;8.30;4.38;;;;;;;16.03;76.32;102386.75;7389406;19;19926;-63
2023/09/05 01:57:54;;;;;;;7.70;4.68;;;;;;;16.11;75.81;102386.19;7388668;19;20030;-63
2023/09/05 02:00:21;;;;;;;7.78;4.47;;;;;;;16.17;75.47;102386.59;7390265;19;20018;-63
2023/09/05 02:02:49;;;;;;;7.20;4.35;;;;;;;16.16;75.05;102387.56;7388632;19;20133;-63
2023/09/05 02:05:16;;;;;;;7.43;4.05;;;;;;;16.15;75.00;102375.16;7389235;19;20023;-63
2023/09/05 02:07:44;;;;;;;7.03;4.50;;;;;;;16.07;75.39;102381.06;7389048;19;20049;-63
2023/09/05 02:10:11;;;;;;;8.23;5.15;;;;;;;16.01;75.41;102369.94;7390145;19;20038;-63
2023/09/05 02:12:44;;;;;;;7.45;4.32;;;;;;;16.05;75.24;102366.09;7389662;19;20018;-63
2023/09/05 02:15:11;;;;;;;6.90;4.43;;;;;;;16.05;74.75;102355.41;7386418;19;20456;-63
2023/09/05 02:17:39;;;;;;;8.65;4.70;;;;;;;16.02;74.46;102353.78;7389968;19;20026;-63
2023/09/05 02:20:07;;;;;;;6.88;4.68;;;;;;;16.05;74.31;102358.06;7387352;19;20018;-63
2023/09/05 02:22:35;;;;;;;8.15;4.60;;;;;;;16.03;74.58;102352.00;7396688;19;20018;-63
2023/09/05 02:25:02;;;;;;;8.02;4.72;;;;;;;15.97;74.83;102357.75;7398149;19;20015;-63
2023/09/05 02:27:29;;;;;;;7.40;4.90;;;;;;;15.99;74.42;102359.38;7398785;19;20014;-63
2023/09/05 02:30:01;;;;;;;9.13;4.57;;;;;;;15.95;74.55;102370.38;7397913;19;20010;-63
2023/09/05 02:32:31;;;;;;;7.28;5.00;;;;;;;15.85;75.08;102370.19;7398093;19;20019;-63
2023/09/05 02:34:59;;;;;;;8.43;4.68;;;;;;;15.93;75.21;102369.63;7395458;19;20022;-63
2023/09/05 02:37:27;;;;;;;7.32;5.10;;;;;;;15.91;75.43;102369.75;7396042;19;20082;-63
2023/09/05 02:39:55;;;;;;;8.35;4.60;;;;;;;15.87;75.88;102364.72;7397501;19;20480;-63
2023/09/05 02:42:22;;;;;;;8.30;4.75;;;;;;;15.86;75.83;102365.69;7395626;19;20007;-63
2023/09/05 02:44:51;;;;;;;7.40;4.90;;;;;;;15.81;76.03;102363.34;7393943;19;20042;-63
2023/09/05 02:47:20;;;;;;;8.45;5.00;;;;;;;15.79;75.93;102368.78;7396178;19;20014;-63
2023/09/05 02:49:48;;;;;;;7.13;4.50;;;;;;;15.77;76.01;102361.84;7396828;19;20022;-63
2023/09/05 02:52:17;;;;;;;7.32;5.15;;;;;;;15.82;76.04;102365.88;7397601;19;20105;-63
2023/09/05 02:54:44;;;;;;;6.70;4.82;;;;;;;15.87;75.84;102362.03;7394032;19;20015;-63
2023/09/05 02:57:12;;;;;;;7.28;4.88;;;;;;;15.87;75.84;102356.69;7397138;19;20027;-63
2023/09/05 02:59:39;;;;;;;7.63;5.05;;;;;;;15.91;75.67;102363.53;7397307;19;20385;-63
2023/09/05 03:02:07;;;;;;;9.25;5.03;;;;;;;15.92;75.36;102354.56;7395714;19;20390;-63
2023/09/05 03:04:34;;;;;;;7.78;4.60;;;;;;;15.86;75.38;102357.66;7394326;19;20039;-63
2023/09/05 03:07:02;;;;;;;7.22;4.78;;;;;;;15.81;75.52;102353.50;7395859;19;20018;-63
2023/09/05 03:09:29;;;;;;;8.27;5.13;;;;;;;15.82;75.36;102351.69;7395542;19;20035;-63
2023/09/05 03:11:57;;;;;;;6.97;4.50;;;;;;;15.80;75.32;102346.47;7396364;19;20039;-63
2023/09/05 03:14:25;;;;;;;7.20;4.82;;;;;;;15.81;75.28;102341.97;7394014;19;20022;-63
2023/09/05 03:16:52;;;;;;;6.35;4.53;;;;;;;15.79;75.21;102343.88;7399584;19;20015;-63
2023/09/05 03:19:21;;;;;;;7.07;5.07;;;;;;;15.79;75.25;102331.38;7397684;19;20018;-63
2023/09/05 03:21:49;;;;;;;8.73;5.60;;;;;;;15.49;76.38;102342.38;7396393;19;20622;-63
2023/09/05 03:24:17;;;;;;;7.93;5.32;;;;;;;15.36;77.24;102338.81;7395662;19;20097;-63
2023/09/05 03:26:46;;;;;;;8.85;5.35;;;;;;;15.30;77.46;102341.91;7397345;19;20018;-63
2023/09/05 03:29:13;;;;;;;8.20;4.80;;;;;;;15.25;77.40;102338.69;7396071;19;20038;-63
2023/09/05 03:31:41;;;;;;;9.20;5.75;;;;;;;15.21;77.62;102338.03;7395702;19;20025;-63
2023/09/05 03:34:08;;;;;;;8.88;5.70;;;;;;;15.18;78.03;102332.91;7391618;19;20025;-63
2023/09/05 03:36:36;;;;;;;9.85;6.28;;;;;;;15.05;78.59;102335.56;7395330;19;20022;-63
2023/09/05 03:39:03;;;;;;;7.68;4.90;;;;;;;15.32;77.88;102340.00;7394771;19;20032;-63
2023/09/05 03:41:31;;;;;;;9.70;5.70;;;;;;;15.47;77.00;102338.94;7394175;19;20018;-63
2023/09/05 03:43:58;;;;;;;9.13;4.93;;;;;;;15.54;76.64;102331.38;7391085;19;20022;-63
2023/09/05 03:46:27;;;;;;;9.85;5.20;;;;;;;15.56;76.24;102340.09;7394613;19;20022;-63
2023/09/05 03:48:57;;;;;;;7.75;5.28;;;;;;;15.54;76.18;102332.22;7393119;19;20070;-63
2023/09/05 03:51:27;;;;;;;6.13;4.38;;;;;;;15.54;76.33;102336.72;7395590;19;20382;-63
2023/09/05 03:53:58;;;;;;;9.45;4.80;;;;;;;15.55;76.28;102335.75;7391527;19;20491;-63
2023/09/05 03:56:26;;;;;;;8.63;5.05;;;;;;;15.59;76.13;102330.06;7392986;19;20662;-63
2023/09/05 03:58:54;;;;;;;9.68;5.55;;;;;;;15.63;76.01;102333.38;7395182;19;20018;-63
2023/09/05 04:01:21;;;;;;;8.40;5.05;;;;;;;15.67;76.05;102336.72;7394897;19;20082;-63
2023/09/05 04:03:50;;;;;;;9.85;5.55;;;;;;;15.67;75.91;102328.72;7392827;19;20022;-63
2023/09/05 04:06:17;;;;;;;9.27;5.05;;;;;;;15.68;76.06;102333.09;7392591;19;20029;-63
2023/09/05 04:08:45;;;;;;;7.72;5.20;;;;;;;15.69;75.88;102327.66;7393969;19;20025;-63
2023/09/05 04:11:12;;;;;;;8.43;5.22;;;;;;;15.68;75.86;102331.31;7394003;19;20029;-63
2023/09/05 04:13:40;;;;;;;8.25;5.25;;;;;;;15.57;76.21;102333.84;7392731;19;20018;-63
2023/09/05 04:16:07;;;;;;;8.23;5.28;;;;;;;15.49;76.20;102333.47;7394001;19;20034;-63
2023/09/05 04:18:35;;;;;;;8.65;4.93;;;;;;;15.48;76.46;102326.44;7394578;19;20025;-63
2023/09/05 04:21:03;;;;;;;8.85;5.00;;;;;;;15.47;76.34;102330.06;7393972;19;20781;-63
2023/09/05 04:23:31;;;;;;;9.45;5.00;;;;;;;15.42;76.50;102324.22;7391319;19;20011;-64
2023/09/05 04:26:01;;;;;;;7.85;5.00;;;;;;;15.49;76.11;102323.69;7392303;19;20023;-64
2023/09/05 04:28:30;;;;;;;8.35;5.30;;;;;;;15.49;76.06;102320.13;7394169;19;20349;-64
2023/09/05 04:31:02;;;;;;;8.30;5.38;;;;;;;15.53;75.74;102318.94;7393329;19;20046;-63
2023/09/05 04:33:37;;;;;;;7.63;4.75;;;;;;;15.50;75.76;102322.72;7391543;19;20022;-63
2023/09/05 04:36:09;;;;;;;8.27;5.35;;;;;;;15.49;75.72;102329.03;7392428;19;20496;-63
2023/09/05 04:38:37;;;;;;;8.32;5.18;;;;;;;15.46;75.75;102323.88;7393796;19;20038;-63
2023/09/05 04:41:07;;;;;;;8.25;4.85;;;;;;;15.45;75.77;102330.16;7393628;19;20022;-63
2023/09/05 04:43:35;;;;;;;7.28;4.55;;;;;;;15.51;75.64;102326.22;7390944;19;20478;-63
2023/09/05 04:46:05;;;;;;;7.28;5.10;;;;;;;15.22;76.41;102323.72;7388627;19;20393;-63
2023/09/05 04:48:33;;;;;;;7.88;5.00;;;;;;;15.16;77.13;102326.00;7392858;19;20468;-63
2023/09/05 04:51:04;;;;;;;7.80;4.80;;;;;;;15.27;76.24;102332.31;7391226;19;20370;-63
2023/09/05 04:53:32;;;;;;;7.43;5.13;;;;;;;15.35;75.87;102337.13;7391478;19;20018;-63
2023/09/05 04:56:00;;;;;;;7.07;4.80;;;;;;;15.37;75.72;102335.19;7392409;19;20022;-63
2023/09/05 04:58:29;;;;;;;9.05;4.88;;;;;;;15.35;75.75;102343.31;7392856;19;20022;-63
2023/09/05 05:01:04;;;;;;;8.98;5.70;;;;;;;15.07;77.13;102354.13;7391215;19;20018;-63
2023/09/05 05:03:33;;;;;;;9.02;5.53;;;;;;;14.90;77.85;102354.41;7392958;19;20014;-58
2023/09/05 05:06:02;;;;;;;9.00;5.90;;;;;;;14.96;78.15;102352.19;7395395;19;20021;-63
2023/09/05 05:08:30;;;;;;;7.20;5.05;;;;;;;15.21;77.08;102351.41;7397107;19;20011;-63
2023/09/05 05:10:58;;;;;;;9.02;5.43;;;;;;;15.29;76.46;102351.72;7392750;19;20022;-63
2023/09/05 05:13:25;;;;;;;8.55;5.30;;;;;;;15.40;76.18;102344.81;7391720;19;20014;-63
2023/09/05 05:15:53;;;;;;;7.85;5.32;;;;;;;15.46;76.14;102347.06;7393031;19;20014;-63
2023/09/05 05:18:20;;;;;;;11.70;5.60;;;;;;;15.52;75.97;102344.81;7393372;19;20507;-63
2023/09/05 05:20:48;;;;;;;7.97;5.22;;;;;;;15.47;76.11;102343.44;7391458;19;20029;-63
2023/09/05 05:23:15;;;;;;;7.45;5.13;;;;;;;15.42;76.23;102332.22;7391335;19;20011;-63
2023/09/05 05:25:46;;;;;;;7.57;4.85;;;;;;;15.43;76.10;102334.78;7391402;19;20025;-62
2023/09/05 05:28:14;;;;;;;8.80;5.20;;;;;;;15.45;76.19;102331.97;7393845;19;20015;-63
2023/09/05 05:30:41;;;;;;;8.20;5.22;;;;;;;15.47;76.01;102325.59;7393241;19;20070;-63
2023/09/05 05:33:08;;;;;;;7.72;4.90;;;;;;;15.58;75.76;102327.53;7389976;19;20019;-64
2023/09/05 05:35:37;;;;;;;7.05;4.57;;;;;;;15.59;75.81;102323.88;7389601;19;20026;-63
2023/09/05 05:38:05;;;;;;;8.13;4.88;;;;;;;15.62;75.81;102326.34;7389604;19;20045;-63
2023/09/05 05:40:32;;;;;;;7.40;5.10;;;;;;;15.64;75.64;102328.91;7391375;19;20063;-63
2023/09/05 05:43:00;;;;;;;9.25;5.32;;;;;;;15.67;75.90;102328.72;7388524;19;20014;-63
2023/09/05 05:45:28;;;;;;;6.63;4.32;;;;;;;15.67;75.92;102334.91;7391574;19;20090;-63
2023/09/05 05:47:57;;;;;;;8.82;5.10;;;;;;;15.76;75.83;102333.44;7391554;19;20338;-63
2023/09/05 05:50:24;;;;;;;8.32;5.07;;;;;;;15.62;76.86;102336.19;7391288;19;20023;-63
2023/09/05 05:52:52;;;;;;;9.40;5.45;;;;;;;15.51;77.17;102337.75;7390016;19;20393;-63
2023/09/05 05:55:19;;;;;;;8.88;5.28;;;;;;;15.51;77.54;102340.44;7387717;19;20014;-63
2023/09/05 05:57:47;;;;;;;7.60;4.68;;;;;;;15.68;77.29;102335.75;7390258;19;20097;-63
2023/09/05 06:00:14;;;;;;;7.78;4.78;;;;;;;15.74;77.07;102332.66;7391243;19;20018;-64
2023/09/05 06:02:42;;;;;;;9.55;4.60;;;;;;;15.83;76.97;102334.69;7389713;19;20018;-63
2023/09/05 06:05:09;;;;;;;9.82;5.10;;;;;;;15.95;76.63;102336.50;7388668;19;20039;-63
2023/09/05 06:07:37;;;;;;;9.35;5.10;;;;;;;15.85;77.34;102332.78;7390373;19;20046;-63
2023/09/05 06:10:05;;;;;;;7.40;4.75;;;;;;;15.80;77.97;102326.91;7390518;19;20018;-63
2023/09/05 06:12:33;;;;;;;9.20;4.60;;;;;;;15.89;77.35;102322.72;7390313;19;20074;-63
2023/09/05 06:15:00;;;;;;;7.20;4.47;;;;;;;16.01;76.98;102316.50;7388648;19;20022;-63
2023/09/05 06:17:28;;;;;;;10.07;5.50;;;;;;;16.06;76.92;102317.88;7390209;19;20366;-63
2023/09/05 06:19:56;;;;;;;9.93;5.47;;;;;;;16.19;77.06;102314.31;7390022;19;20022;-64
2023/09/05 06:22:23;;;;;;;7.95;4.97;;;;;;;16.30;77.04;102312.56;7389610;19;20018;-63
2023/09/05 06:24:51;;;;;;;9.15;4.82;;;;;;;16.34;77.05;102313.22;7387636;19;20019;-63
2023/09/05 06:27:18;;;;;;;9.45;5.32;;;;;;;16.41;76.78;102303.78;7389041;19;20015;-63
2023/09/05 06:29:47;;;;;;;9.30;4.70;;;;;;;16.48;76.74;102307.72;7389734;19;20357;-64
2023/09/05 06:32:14;;;;;;;8.30;5.13;;;;;;;16.57;76.59;102315.03;7389946;19;20044;-63
2023/09/05 06:34:42;;;;;;;7.93;4.53;;;;;;;16.63;76.32;102311.03;7387993;19;20022;-63
2023/09/05 06:37:10;;;;;;;9.10;4.85;;;;;;;16.63;76.70;102302.16;7389923;19;20018;-63
2023/09/05 06:39:37;;;;;;;7.57;4.85;;;;;;;16.73;76.52;102309.44;7388249;19;20039;-63
2023/09/05 06:42:08;;;;;;;10.70;5.72;;;;;;;16.81;76.40;102301.69;7389693;19;20345;-62
2023/09/05 06:44:35;;;;;;;9.13;5.60;;;;;;;16.86;76.52;102305.81;7385616;19;20035;-63
2023/09/05 06:47:03;;;;;;;9.10;5.03;;;;;;;16.95;76.31;102302.47;7389576;19;20017;-63
2023/09/05 06:49:30;;;;;;;8.95;5.10;;;;;;;17.07;76.02;102301.53;7389340;19;20074;-63
2023/09/05 06:51:58;;;;;;;8.02;4.60;;;;;;;17.22;75.63;102297.66;7389106;19;20010;-63
2023/09/05 06:54:25;;;;;;;7.80;4.35;;;;;;;17.33;74.97;102291.50;7387152;19;20423;-63
2023/09/05 06:56:52;;;;;;;8.50;4.18;;;;;;;17.45;74.27;102290.53;7389562;19;20015;-63
2023/09/05 06:59:20;;;;;;;8.20;3.95;;;;;;;17.49;73.97;102294.66;7389318;19;20089;-63
2023/09/05 07:01:47;;;;;;;8.65;4.53;;;;;;;17.56;74.58;102296.88;7388720;19;20046;-63
2023/09/05 07:04:15;;;;;;;8.85;4.05;;;;;;;17.62;74.20;102294.56;7387449;19;20539;-63
2023/09/05 07:06:42;;;;;;;8.73;4.15;;;;;;;17.66;74.48;102297.84;7389054;19;20082;-63
2023/09/05 07:09:10;;;;;;;7.78;3.42;;;;;;;17.72;74.50;102300.03;7393433;19;20426;-63
2023/09/05 07:11:38;;;;;;;5.95;3.28;;;;;;;17.78;74.49;102297.78;7396117;19;20018;-63
2023/09/05 07:14:05;;;;;;;7.25;3.90;;;;;;;17.88;74.29;102308.59;7393710;19;20427;-63
2023/09/05 07:16:32;;;;;;;6.60;3.45;;;;;;;17.93;74.08;102300.19;7393896;19;20049;-63
2023/09/05 07:19:00;;;;;;;7.13;3.30;;;;;;;17.98;74.60;102303.38;7394190;19;20023;-63
2023/09/05 07:21:28;;;;;;;9.32;3.40;;;;;;;18.06;74.04;102297.38;7395666;19;20551;-63
2023/09/05 07:23:55;;;;;;;9.38;3.75;;;;;;;18.13;73.64;102302.13;7392945;19;20043;-63
2023/09/05 07:26:23;;;;;;;7.80;3.47;;;;;;;18.16;73.46;102307.25;7394227;19;20032;-63
2023/09/05 07:28:50;;;;;;;8.40;3.65;;;;;;;18.23;73.08;102304.91;7395574;19;20018;-63
2023/09/05 07:31:18;;;;;;;7.10;3.40;;;;;;;18.27;73.15;102303.66;7394985;19;20018;-63
2023/09/05 07:33:46;;;;;;;5.97;3.28;;;;;;;18.32;73.19;102306.84;7393096;19;20014;-63
2023/09/05 07:36:13;;;;;;;7.90;3.20;;;;;;;18.37;73.04;102312.69;7392924;19;20078;-63
2023/09/05 07:38:41;;;;;;;7.05;3.05;;;;;;;18.41;73.25;102306.06;7393243;19;20022;-62
2023/09/05 07:41:09;;;;;;;7.18;3.15;;;;;;;18.48;73.13;102311.81;7394994;19;20030;-63
2023/09/05 07:43:36;;;;;;;6.28;3.33;;;;;;;18.51;72.80;102308.88;7392892;19;20026;-63
2023/09/05 07:46:04;;;;;;;6.60;3.00;;;;;;;18.49;72.69;102286.66;7393061;19;20316;-59
2023/09/05 07:48:32;;;;;;;6.95;3.10;;;;;;;18.64;72.38;102317.59;7394570;19;20379;-59
2023/09/05 07:51:05;;;;;;;5.95;3.17;;;;;;;18.71;72.35;102321.50;7393096;19;20393;-61
2023/09/05 07:53:39;;;;;;;5.00;3.05;;;;;;;18.73;72.58;102327.63;7391625;19;20074;-61
2023/09/05 07:56:07;;;;;;;6.25;3.33;;;;;;;18.77;72.79;102322.81;7392613;19;20014;-61
2023/09/05 07:58:34;;;;;;;7.25;3.40;;;;;;;18.83;72.81;102325.00;7394505;19;20010;-61
2023/09/05 08:01:02;;;;;;;5.93;3.08;;;;;;;18.86;72.69;102322.06;7394865;19;20098;-60
2023/09/05 08:03:29;;;;;;;7.15;3.13;;;;;;;18.91;72.69;102324.34;7392891;19;20022;-60
2023/09/05 08:05:57;;;;;;;6.85;2.95;;;;;;;18.97;71.64;102323.84;7393952;19;20010;-61
2023/09/05 08:08:24;;;;;;;7.97;3.13;;;;;;;19.11;71.51;102322.66;7394214;19;20019;-61
2023/09/05 08:10:52;;;;;;;6.10;2.97;;;;;;;19.14;71.20;102325.94;7393934;19;20021;-61
2023/09/05 08:13:19;;;;;;;8.30;3.17;;;;;;;19.18;71.31;102319.31;7391217;19;20472;-62
2023/09/05 08:15:47;;;;;;;7.45;3.33;;;;;;;19.25;70.86;102322.34;7392941;19;20039;-61
2023/09/05 08:18:14;;;;;;;6.15;3.10;;;;;;;19.32;70.52;102322.69;7394378;19;20027;-62
2023/09/05 08:20:46;;;;;;;5.40;2.60;;;;;;;19.36;70.71;102329.50;7392231;19;20018;-62
2023/09/05 08:23:13;;;;;;;6.07;2.67;;;;;;;19.38;70.46;102328.34;7393178;19;20082;-61
2023/09/05 08:25:41;;;;;;;5.82;3.10;;;;;;;19.42;70.37;102326.25;7392507;19;20029;-62
2023/09/05 08:28:09;;;;;;;5.72;2.97;;;;;;;19.50;70.02;102329.16;7393670;19;20018;-61
2023/09/05 08:30:36;;;;;;;6.78;3.17;;;;;;;19.57;69.61;102319.56;7393932;19;20022;-61
2023/09/05 08:33:04;;;;;;;5.43;2.60;;;;;;;19.62;69.82;102319.22;7392774;19;20019;-61
2023/09/05 08:35:31;;;;;;;6.78;2.78;;;;;;;19.68;69.65;102321.34;7392465;19;20384;-61
2023/09/05 08:38:02;;;;;;;6.47;2.95;;;;;;;19.71;69.60;102323.78;7393258;19;20370;-61
2023/09/05 08:40:34;;;;;;;5.13;2.50;;;;;;;19.78;69.18;102324.09;7393304;19;20489;-63
2023/09/05 08:43:02;;;;;;;7.43;3.10;;;;;;;19.78;69.59;102313.34;7392324;19;20043;-63
2023/09/05 08:45:31;;;;;;;6.03;2.92;;;;;;;19.86;69.90;102318.88;7392070;19;20043;-61
2023/09/05 08:47:58;;;;;;;8.40;2.72;;;;;;;19.84;69.59;102312.78;7391146;19;20043;-62
2023/09/05 08:50:32;;;;;;;6.95;2.90;;;;;;;19.87;69.54;102312.50;7393786;19;20085;-60
2023/09/05 08:53:04;;;;;;;7.70;3.15;;;;;;;19.95;69.25;102310.84;7392755;19;20035;-60
2023/09/05 08:55:31;;;;;;;8.20;2.85;;;;;;;20.03;68.87;102306.63;7391065;19;20038;-61
2023/09/05 08:58:01;;;;;;;9.43;3.00;;;;;;;20.17;68.47;102306.25;7393021;19;20018;-61
2023/09/05 09:00:28;;;;;;;6.90;2.67;;;;;;;20.21;67.55;102310.38;7392936;19;20022;-64
2023/09/05 09:02:56;;;;;;;7.95;3.03;;;;;;;20.24;67.08;102314.63;7391298;19;20018;-60
2023/09/05 09:05:25;;;;;;;6.38;2.72;;;;;;;20.26;67.44;102316.19;7391147;19;20023;-61
2023/09/05 09:07:54;;;;;;;6.88;2.72;;;;;;;20.31;66.96;102318.47;7392512;19;20483;-61
2023/09/05 09:10:23;;;;;;;5.38;2.97;;;;;;;20.36;67.23;102308.13;7390616;19;20014;-60
2023/09/05 09:13:12;;;;;;;8.13;3.03;;;;;;;20.41;67.28;102316.63;7391189;19;20027;-61
2023/09/05 09:15:43;;;;;;;6.90;2.88;;;;;;;20.45;66.66;102310.84;7391746;19;20019;-61
2023/09/05 09:18:12;;;;;;;3.85;2.67;;;;;;;20.55;66.56;102312.72;7392384;19;20035;-62
2023/09/05 09:20:44;;;;;;;6.22;2.97;;;;;;;20.64;66.87;102310.06;7392148;19;20025;-61
2023/09/05 09:23:11;;;;;;;5.97;2.50;;;;;;;20.67;67.13;102309.75;7390686;19;20378;-61
2023/09/05 09:25:49;;;;;;;7.22;2.92;;;;;;;20.74;67.09;102298.44;7390171;19;20011;-59
2023/09/05 09:28:28;;;;;;;5.50;2.67;;;;;;;20.85;66.42;102301.81;7391897;19;20019;-60
2023/09/05 09:31:05;;;;;;;4.97;2.50;;;;;;;20.91;65.83;102303.97;7390097;19;20031;-62
2023/09/05 09:33:33;;;;;;;8.20;2.75;;;;;;;20.99;65.95;102295.16;7390136;19;20054;-60
2023/09/05 09:36:06;;;;;;;5.13;2.60;;;;;;;20.96;66.11;102300.84;7390234;19;20038;-61
2023/09/05 09:38:35;;;;;;;5.68;2.80;;;;;;;20.97;66.20;102307.91;7391598;19;20027;-61
2023/09/05 09:41:05;;;;;;;8.32;2.40;;;;;;;21.09;66.33;102305.91;7390026;19;20018;-61
2023/09/05 09:43:35;;;;;;;5.38;2.55;;;;;;;21.07;65.98;102313.31;7389986;19;20504;-61
2023/09/05 09:46:05;;;;;;;7.18;2.90;;;;;;;21.14;65.98;102311.75;7391300;19;20033;-61
2023/09/05 09:48:35;;;;;;;5.28;2.35;;;;;;;21.28;65.18;102303.19;7390697;19;20023;-61
2023/09/05 09:51:06;;;;;;;7.50;2.88;;;;;;;21.27;66.15;102301.50;7389846;19;20082;-60
2023/09/05 09:53:39;;;;;;;8.10;2.95;;;;;;;21.30;65.13;102303.91;7389956;19;20029;-60
2023/09/05 09:56:11;;;;;;;6.00;2.53;;;;;;;21.34;65.58;102304.50;7390511;19;20023;-60
2023/09/05 09:58:42;;;;;;;5.50;2.90;;;;;;;21.39;65.82;102294.97;7389206;19;20047;-59
2023/09/05 10:01:13;;;;;;;6.70;3.10;;;;;;;21.42;65.38;102294.66;7389344;19;20006;-60
2023/09/05 10:03:44;;;;;;;6.50;2.67;;;;;;;21.44;65.30;102293.66;7387896;19;20028;-60
2023/09/05 10:06:12;;;;;;;6.80;2.85;;;;;;;21.51;65.64;102282.16;7390869;19;20014;-60
2023/09/05 10:08:40;;;;;;;6.10;3.08;;;;;;;21.60;65.68;102283.97;7390945;19;20017;-60
2023/09/05 10:11:14;;;;;;;6.03;2.55;;;;;;;21.55;65.70;102280.84;7390715;19;20492;-61
2023/09/05 10:13:44;;;;;;;4.85;2.40;;;;;;;21.67;65.41;102284.22;7388436;19;20011;-60
2023/09/05 10:16:14;;;;;;;5.68;2.50;;;;;;;21.78;65.93;102283.19;7389489;19;20050;-61
2023/09/05 10:18:44;;;;;;;7.20;2.90;;;;;;;21.62;65.79;102270.34;7388926;19;20033;-61
2023/09/05 10:21:14;;;;;;;8.98;2.90;;;;;;;21.66;65.29;102275.28;7390631;19;20029;-63
2023/09/05 10:23:42;;;;;;;6.40;2.60;;;;;;;21.89;65.15;102270.34;7388343;19;20026;-62
2023/09/05 10:26:13;;;;;;;4.55;2.47;;;;;;;21.92;64.47;102273.75;7388667;19;20078;-61
2023/09/05 10:28:41;;;;;;;5.15;2.55;;;;;;;21.92;63.97;102266.50;7390725;19;20019;-59
2023/09/05 10:31:13;;;;;;;6.35;2.55;;;;;;;21.94;64.34;102261.81;7390115;19;20659;-61
2023/09/05 10:33:45;;;;;;;6.90;3.22;;;;;;;22.03;64.03;102262.75;7388628;19;20512;-62
2023/09/05 10:36:42;;;;;;;5.50;2.95;;;;;;;22.02;63.58;102261.91;7389026;19;20022;-61
2023/09/05 10:39:17;;;;;;;5.95;2.72;;;;;;;22.07;64.36;102256.91;7389030;19;20024;-61
2023/09/05 10:41:44;;;;;;;6.03;2.35;;;;;;;22.08;64.24;102249.66;7389501;19;20035;-61
2023/09/05 10:44:12;;;;;;;5.45;2.50;;;;;;;22.10;64.72;102250.38;7392044;19;20026;-60
2023/09/05 10:46:40;;;;;;;4.88;2.20;;;;;;;22.16;63.54;102238.97;7397126;19;20360;-59
2023/09/05 10:49:14;;;;;;;7.90;2.40;;;;;;;22.26;62.26;102242.47;7396730;19;20070;-60
2023/09/05 10:52:14;;;;;;;5.75;2.38;;;;;;;22.33;61.77;102242.69;7397353;19;20504;-62
2023/09/05 10:54:42;;;;;;;5.20;2.30;;;;;;;22.24;62.42;102243.59;7393746;19;20023;-61
2023/09/05 10:57:35;;;;;;;7.38;2.35;;;;;;;22.49;62.63;102250.09;7396584;19;20015;-62
2023/09/05 11:00:14;;;;;;;5.20;2.28;;;;;;;22.49;62.33;102250.09;7396251;19;20051;-61
2023/09/05 11:02:43;;;;;;;6.57;1.83;;;;;;;22.56;62.54;102238.53;7395736;19;20034;-62
2023/09/05 11:05:18;;;;;;;5.10;2.17;;;;;;;22.72;62.56;102245.06;7396990;19;20433;-62
2023/09/05 11:07:48;;;;;;;5.28;2.25;;;;;;;22.80;61.59;102237.88;7394612;19;20021;-62
2023/09/05 11:10:28;;;;;;;3.95;2.20;;;;;;;22.88;61.89;102242.50;7396349;19;20026;-60
2023/09/05 11:13:08;;;;;;;3.67;2.22;;;;;;;22.79;62.21;102238.88;7395178;19;20015;-62
2023/09/05 11:15:37;;;;;;;3.85;2.10;;;;;;;22.77;61.07;102240.03;7396621;19;20025;-62
2023/09/05 11:18:06;;;;;;;4.85;1.90;;;;;;;22.79;61.02;102240.75;7399064;19;20525;-62
2023/09/05 11:20:45;;;;;;;5.50;2.25;;;;;;;22.84;59.91;102233.84;7399899;19;20018;-62
2023/09/05 11:23:16;;;;;;;6.35;1.92;;;;;;;23.01;60.47;102225.88;7397147;19;20082;-62
2023/09/05 11:25:55;;;;;;;6.03;2.30;;;;;;;22.99;60.66;102225.22;7399271;19;20362;-62
2023/09/05 11:28:24;;;;;;;4.55;2.20;;;;;;;23.06;59.75;102219.00;7397116;19;20021;-61
2023/09/05 11:30:56;;;;;;;3.65;1.95;;;;;;;23.28;59.68;102219.50;7396786;19;20080;-62
2023/09/05 11:33:26;;;;;;;4.53;2.10;;;;;;;23.40;60.19;102226.31;7394486;19;20484;-61